Terminal Aerodrome Forecast
Issued by NWS Sterling, VA

Current Version | Previous Version | Text Only | Print | Product List | Glossary Off
Versions: 1 2 3 4 5 6 7 8 9 10 11 12 13 14 15 16 17 18

000
FTUS41 KLWX 261746
TAFMRB
TAF
KMRB 261746Z 2618/2718 21015G25KT P6SM SCT050
     FM262100 25012G22KT 3SM SHRA BKN050
     FM262300 32017G26KT P6SM VCSH OVC050
     FM270200 33012G20KT 5SM -RA BKN015 OVC050
     FM270700 33008KT P6SM BKN025
     FM271700 33010G18KT P6SM BKN025=

USA.gov is the U.S. government's official web portal to all federal, state and local government web resources and services.